createdAt,value
2023-02-27T00:02:02.704Z,7.53
2023-02-27T00:04:30.332Z,7.46
2023-02-27T00:06:57.712Z,7.35
2023-02-27T00:09:25.257Z,7.33
2023-02-27T00:11:53.235Z,7.77
2023-02-27T00:14:20.792Z,7.71
2023-02-27T00:16:48.181Z,7.94
2023-02-27T00:19:15.832Z,7.94
2023-02-27T00:21:44.789Z,8.25
2023-02-27T00:24:12.079Z,8.16
2023-02-27T00:26:39.827Z,8.23
2023-02-27T00:29:07.298Z,8.14
2023-02-27T00:31:35.108Z,7.63
2023-02-27T00:34:04.409Z,7.59
2023-02-27T00:36:31.765Z,7.86
2023-02-27T00:38:59.173Z,7.25
2023-02-27T00:41:27.161Z,7.40
2023-02-27T00:43:54.693Z,7.59
2023-02-27T00:46:22.356Z,7.54
2023-02-27T00:48:51.523Z,7.52
2023-02-27T00:51:20.446Z,7.60
2023-02-27T00:53:47.772Z,7.74
2023-02-27T00:56:15.682Z,7.85
2023-02-27T00:58:43.039Z,7.74
2023-02-27T01:01:10.347Z,7.87
2023-02-27T01:03:38.182Z,7.97
2023-02-27T01:06:05.746Z,7.89
2023-02-27T01:08:33.020Z,7.92
2023-02-27T01:11:00.959Z,8.11
2023-02-27T01:13:32.100Z,7.86
2023-02-27T01:15:59.320Z,7.78
2023-02-27T01:18:27.789Z,7.79
2023-02-27T01:20:57.089Z,7.90
2023-02-27T01:23:24.340Z,8.04
2023-02-27T01:25:52.026Z,8.30
2023-02-27T01:28:19.324Z,8.25
2023-02-27T01:30:46.930Z,8.46
2023-02-27T01:33:15.092Z,8.36
2023-02-27T01:35:42.526Z,8.29
2023-02-27T01:38:10.394Z,8.27
2023-02-27T01:40:39.727Z,8.31
2023-02-27T01:43:15.237Z,8.33
2023-02-27T01:45:47.888Z,8.36
2023-02-27T01:48:29.301Z,8.31
2023-02-27T01:51:08.698Z,8.41
2023-02-27T01:53:39.791Z,8.49
2023-02-27T01:56:16.797Z,8.46
2023-02-27T01:58:46.096Z,8.29
2023-02-27T02:01:14.757Z,8.11
2023-02-27T02:04:05.193Z,8.41
2023-02-27T02:06:37.630Z,8.09
2023-02-27T02:09:07.981Z,7.98
2023-02-27T02:11:35.162Z,8.09
2023-02-27T02:14:04.199Z,8.22
2023-02-27T02:17:08.959Z,8.50
2023-02-27T02:19:40.081Z,8.36
2023-02-27T02:22:29.319Z,8.01
2023-02-27T02:25:45.723Z,8.05
2023-02-27T02:28:48.389Z,8.19
2023-02-27T02:31:39.429Z,8.39
2023-02-27T02:34:31.366Z,7.76
2023-02-27T02:37:17.614Z,7.93
2023-02-27T02:40:06.130Z,8.00
2023-02-27T02:42:39.410Z,8.08
2023-02-27T02:45:59.504Z,7.98
2023-02-27T02:48:33.366Z,7.79
2023-02-27T02:51:11.755Z,7.79
2023-02-27T02:53:48.050Z,7.78
2023-02-27T02:56:54.239Z,8.00
2023-02-27T02:59:33.481Z,7.84
2023-02-27T03:02:10.424Z,7.86
2023-02-27T03:04:47.493Z,7.79
2023-02-27T03:07:35.766Z,7.99
2023-02-27T03:10:09.631Z,8.00
2023-02-27T03:12:41.853Z,7.94
2023-02-27T03:15:18.711Z,8.11
2023-02-27T03:17:58.288Z,8.17
2023-02-27T03:20:31.898Z,8.16
2023-02-27T03:23:05.709Z,8.05
2023-02-27T03:25:35.585Z,8.20
2023-02-27T03:28:09.596Z,8.11
2023-02-27T03:30:45.164Z,8.09
2023-02-27T03:33:21.925Z,8.00
2023-02-27T03:35:56.447Z,7.85
2023-02-27T03:39:01.029Z,7.74
2023-02-27T03:41:42.707Z,7.82
2023-02-27T03:44:24.088Z,7.85
2023-02-27T03:46:51.790Z,7.86
2023-02-27T03:49:19.273Z,7.87
2023-02-27T03:51:47.095Z,7.72
2023-02-27T03:54:16.240Z,7.61
2023-02-27T03:57:05.281Z,7.71
2023-02-27T03:59:33.845Z,7.46
2023-02-27T04:02:02.852Z,7.57
2023-02-27T04:04:32.937Z,7.57
2023-02-27T04:07:25.657Z,7.62
2023-02-27T04:10:09.209Z,7.59
2023-02-27T04:12:57.921Z,7.68
2023-02-27T04:15:33.682Z,7.73
2023-02-27T04:18:32.598Z,7.66
2023-02-27T04:21:29.961Z,7.57
2023-02-27T04:24:39.232Z,7.79
2023-02-27T04:27:24.506Z,7.55
2023-02-27T04:29:51.773Z,7.73
2023-02-27T04:32:36.261Z,7.85
2023-02-27T04:35:12.738Z,7.65
2023-02-27T04:38:14.202Z,7.80
2023-02-27T04:40:52.952Z,7.66
2023-02-27T04:43:22.690Z,7.71
2023-02-27T04:45:52.315Z,7.74
2023-02-27T04:48:27.559Z,7.64
2023-02-27T04:51:04.574Z,7.76
2023-02-27T04:53:38.063Z,7.79
2023-02-27T04:56:14.454Z,7.85
2023-02-27T04:58:49.216Z,7.71
2023-02-27T05:01:47.433Z,7.73
2023-02-27T05:04:18.848Z,7.77
2023-02-27T05:06:49.854Z,7.41
2023-02-27T05:09:17.084Z,7.23
2023-02-27T05:11:56.992Z,7.07
2023-02-27T05:14:40.200Z,6.88
2023-02-27T05:17:31.523Z,7.00
2023-02-27T05:19:59.829Z,7.02
2023-02-27T05:23:00.746Z,7.26
2023-02-27T05:25:28.688Z,7.13
2023-02-27T05:28:10.995Z,7.36
2023-02-27T05:30:52.529Z,7.03
2023-02-27T05:33:46.373Z,7.27
2023-02-27T05:36:24.852Z,7.09
2023-02-27T05:38:59.024Z,7.27
2023-02-27T05:41:33.598Z,7.18
2023-02-27T05:44:12.435Z,6.93
2023-02-27T05:46:43.390Z,7.13
2023-02-27T05:49:21.424Z,6.95
2023-02-27T05:51:51.922Z,6.90
2023-02-27T05:54:51.788Z,7.05
2023-02-27T05:57:46.182Z,6.94
2023-02-27T06:00:20.129Z,6.79
2023-02-27T06:02:48.052Z,6.86
2023-02-27T06:05:17.788Z,7.02
2023-02-27T06:07:45.240Z,6.84
2023-02-27T06:10:16.450Z,6.91
2023-02-27T06:12:43.787Z,7.17
2023-02-27T06:15:13.589Z,6.94
2023-02-27T06:17:42.395Z,7.15
2023-02-27T06:20:10.906Z,7.22
2023-02-27T06:22:38.320Z,7.44
2023-02-27T06:25:06.797Z,7.46
2023-02-27T06:27:34.254Z,7.84
2023-02-27T06:30:01.507Z,7.65
2023-02-27T06:32:29.237Z,7.82
2023-02-27T06:34:56.502Z,8.14
2023-02-27T06:37:24.003Z,8.20
2023-02-27T06:39:52.161Z,8.21
2023-02-27T06:42:19.531Z,8.26
2023-02-27T06:44:46.905Z,8.34
2023-02-27T06:47:14.643Z,8.19
2023-02-27T06:49:41.893Z,8.27
2023-02-27T06:52:09.345Z,8.48
2023-02-27T06:54:37.027Z,8.21
2023-02-27T06:57:05.310Z,8.21
2023-02-27T06:59:32.660Z,8.32
2023-02-27T07:02:00.794Z,8.57
2023-02-27T07:04:28.313Z,8.50
2023-02-27T07:07:33.907Z,8.67
2023-02-27T07:09:43.370Z,8.63
2023-02-27T07:12:10.828Z,8.59
2023-02-27T07:14:38.332Z,8.47
2023-02-27T07:17:06.119Z,8.84
2023-02-27T07:19:36.429Z,9.17
2023-02-27T07:22:04.043Z,9.02
2023-02-27T07:24:31.773Z,8.97
2023-02-27T07:26:59.140Z,8.83
2023-02-27T07:29:26.604Z,9.11
2023-02-27T07:31:54.527Z,9.35
2023-02-27T07:34:22.046Z,9.47
2023-02-27T07:36:49.389Z,9.85
2023-02-27T07:39:17.006Z,9.96
2023-02-27T07:41:44.296Z,9.98
2023-02-27T07:44:16.680Z,10.18
2023-02-27T07:46:45.090Z,10.41
2023-02-27T07:49:12.569Z,10.11
2023-02-27T07:51:39.927Z,10.29
2023-02-27T07:54:08.836Z,10.65
2023-02-27T07:56:36.231Z,10.55
2023-02-27T07:59:03.530Z,10.71
2023-02-27T08:01:31.288Z,10.46
2023-02-27T08:03:58.940Z,10.53
2023-02-27T08:06:26.645Z,10.57
2023-02-27T08:08:54.363Z,10.55
2023-02-27T08:11:23.607Z,10.82
2023-02-27T08:14:06.432Z,10.87
2023-02-27T08:16:34.374Z,10.61
2023-02-27T08:19:02.165Z,10.70
2023-02-27T08:21:30.002Z,10.85
2023-02-27T08:23:58.098Z,10.82
2023-02-27T08:26:26.484Z,11.02
2023-02-27T08:28:54.338Z,10.95
2023-02-27T08:31:21.991Z,11.05
2023-02-27T08:33:55.271Z,11.07
2023-02-27T08:36:25.929Z,11.13
2023-02-27T08:38:53.825Z,11.15
2023-02-27T08:41:22.854Z,11.50
2023-02-27T08:43:50.947Z,11.43
2023-02-27T08:46:18.426Z,11.69
2023-02-27T08:48:45.702Z,11.94
2023-02-27T08:51:13.315Z,11.89
2023-02-27T08:53:40.633Z,11.88
2023-02-27T08:56:08.097Z,11.81
2023-02-27T08:58:36.171Z,12.01
2023-02-27T09:01:04.179Z,11.97
2023-02-27T09:03:31.790Z,12.20
2023-02-27T09:05:59.544Z,12.31
2023-02-27T09:08:27.025Z,12.39
2023-02-27T09:10:58.120Z,12.57
2023-02-27T09:13:26.979Z,12.36
2023-02-27T09:15:54.777Z,12.28
2023-02-27T09:18:22.791Z,12.55
2023-02-27T09:20:53.818Z,12.46
2023-02-27T09:23:21.213Z,12.04
2023-02-27T09:25:48.675Z,12.24
2023-02-27T09:28:16.400Z,12.34
2023-02-27T09:30:43.784Z,12.52
2023-02-27T09:33:11.186Z,12.62
2023-02-27T09:35:38.852Z,12.53
2023-02-27T09:38:06.145Z,12.61
2023-02-27T09:40:40.677Z,12.50
2023-02-27T09:43:24.049Z,12.57
2023-02-27T09:45:54.782Z,12.96
2023-02-27T09:48:34.395Z,12.49
2023-02-27T09:51:02.621Z,12.14
2023-02-27T09:53:39.968Z,12.49
2023-02-27T09:56:17.594Z,11.99
2023-02-27T09:58:52.968Z,12.16
2023-02-27T10:01:22.221Z,12.56
2023-02-27T10:04:11.364Z,12.98
2023-02-27T10:06:48.588Z,12.71
2023-02-27T10:09:28.704Z,12.77
2023-02-27T10:12:20.668Z,13.58
2023-02-27T10:14:51.179Z,14.07
2023-02-27T10:17:29.430Z,13.80
2023-02-27T10:19:58.802Z,13.50
2023-02-27T10:22:31.650Z,13.68
2023-02-27T10:25:29.844Z,13.28
2023-02-27T10:28:09.056Z,13.18
2023-02-27T10:30:36.938Z,13.29
2023-02-27T10:33:14.859Z,12.96
2023-02-27T10:35:45.012Z,12.74
2023-02-27T10:38:15.307Z,12.86
2023-02-27T10:40:44.418Z,12.79
2023-02-27T10:43:16.576Z,13.07
2023-02-27T10:45:44.269Z,12.86
2023-02-27T10:48:12.831Z,13.25
2023-02-27T10:50:44.268Z,13.33
2023-02-27T10:53:37.914Z,13.35
2023-02-27T10:56:08.305Z,12.97
2023-02-27T10:58:38.140Z,13.08
2023-02-27T11:01:11.202Z,12.91
2023-02-27T11:03:41.698Z,12.98
2023-02-27T11:06:13.906Z,12.80
2023-02-27T11:08:41.644Z,12.97
2023-02-27T11:11:12.495Z,12.90
2023-02-27T11:13:42.507Z,12.70
2023-02-27T11:16:16.889Z,12.60
2023-02-27T11:18:46.313Z,12.89
2023-02-27T11:21:22.801Z,12.78
2023-02-27T11:23:58.779Z,12.40
2023-02-27T11:26:27.874Z,12.49
2023-02-27T11:29:13.010Z,12.56
2023-02-27T11:32:10.062Z,12.62
2023-02-27T11:34:47.900Z,12.57
2023-02-27T11:37:30.881Z,12.38
2023-02-27T11:40:11.128Z,12.45
2023-02-27T11:42:46.034Z,12.63
2023-02-27T11:46:05.117Z,12.33
2023-02-27T11:48:17.890Z,12.03
2023-02-27T11:51:06.116Z,11.78
2023-02-27T11:54:01.771Z,11.87
2023-02-27T11:57:04.749Z,11.73
2023-02-27T11:59:51.230Z,11.73
2023-02-27T12:02:40.702Z,11.90
2023-02-27T12:05:22.083Z,12.31
2023-02-27T12:07:55.073Z,12.48
2023-02-27T12:10:27.378Z,12.49
2023-02-27T12:13:12.802Z,12.65
2023-02-27T12:15:46.861Z,12.53
2023-02-27T12:18:17.795Z,12.46
2023-02-27T12:20:57.782Z,12.37
2023-02-27T12:24:00.827Z,12.44
2023-02-27T12:26:34.868Z,12.44
2023-02-27T12:29:26.953Z,12.49
2023-02-27T12:32:07.978Z,12.38
2023-02-27T12:34:38.496Z,12.46
2023-02-27T12:37:12.376Z,12.34
2023-02-27T12:39:42.565Z,12.18
2023-02-27T12:42:52.553Z,12.45
2023-02-27T12:45:40.333Z,12.30
2023-02-27T12:48:29.393Z,12.10
2023-02-27T12:51:20.543Z,12.00
2023-02-27T12:53:54.253Z,11.81
2023-02-27T12:56:26.830Z,11.67
2023-02-27T12:59:19.285Z,11.90
2023-02-27T13:02:12.564Z,11.79
2023-02-27T13:04:55.720Z,11.67
2023-02-27T13:07:39.033Z,11.71
2023-02-27T13:10:23.791Z,11.53
2023-02-27T13:13:37.457Z,11.71
2023-02-27T13:16:19.019Z,11.58
2023-02-27T13:19:06.321Z,11.24
2023-02-27T13:21:52.213Z,11.16
2023-02-27T13:24:31.915Z,11.09
2023-02-27T13:27:07.472Z,11.03
2023-02-27T13:29:41.569Z,11.16
2023-02-27T13:32:43.783Z,11.16
2023-02-27T13:35:14.794Z,11.16
2023-02-27T13:37:56.641Z,11.11
2023-02-27T13:40:28.463Z,10.95
2023-02-27T13:43:26.429Z,10.93
2023-02-27T13:46:20.078Z,10.80
2023-02-27T13:48:53.928Z,10.54
2023-02-27T13:51:36.717Z,10.54
2023-02-27T13:54:07.466Z,10.36
2023-02-27T13:56:35.839Z,10.50
2023-02-27T13:59:26.414Z,10.61
2023-02-27T14:01:58.137Z,10.43
2023-02-27T14:04:29.727Z,10.85
2023-02-27T14:07:09.435Z,11.10
2023-02-27T14:09:41.231Z,11.19
2023-02-27T14:12:33.471Z,10.99
2023-02-27T14:15:30.688Z,10.94
2023-02-27T14:18:13.959Z,11.00
2023-02-27T14:20:43.416Z,11.01
2023-02-27T14:23:26.940Z,10.89
2023-02-27T14:25:58.021Z,10.93
2023-02-27T14:28:49.008Z,10.91
2023-02-27T14:31:35.356Z,11.01
2023-02-27T14:34:08.877Z,11.07
2023-02-27T14:36:47.147Z,11.06
2023-02-27T14:39:23.847Z,10.87
2023-02-27T14:41:57.783Z,10.96
2023-02-27T14:44:31.066Z,11.04
2023-02-27T14:47:03.025Z,11.19
2023-02-27T14:49:33.179Z,11.19
2023-02-27T14:52:21.499Z,11.01
2023-02-27T14:54:50.930Z,10.91
2023-02-27T14:57:25.715Z,10.71
2023-02-27T14:59:55.259Z,10.76
2023-02-27T15:02:30.691Z,10.97
2023-02-27T15:05:01.092Z,11.17
2023-02-27T15:07:32.285Z,10.67
2023-02-27T15:10:04.559Z,10.37
2023-02-27T15:12:37.909Z,10.29
2023-02-27T15:15:08.086Z,9.91
2023-02-27T15:17:45.596Z,9.64
2023-02-27T15:20:34.616Z,9.49
2023-02-27T15:23:21.234Z,9.45
2023-02-27T15:25:48.746Z,9.55
2023-02-27T15:28:23.973Z,9.13
2023-02-27T15:30:53.286Z,8.99
2023-02-27T15:33:27.558Z,8.86
2023-02-27T15:35:55.492Z,8.87
2023-02-27T15:38:29.312Z,9.00
2023-02-27T15:40:57.781Z,9.02
2023-02-27T15:43:27.173Z,8.59
2023-02-27T15:45:55.738Z,8.84
2023-02-27T15:48:23.492Z,8.75
2023-02-27T15:50:58.625Z,8.80
2023-02-27T15:53:28.048Z,8.63
2023-02-27T15:56:01.471Z,8.67
2023-02-27T15:58:38.980Z,8.72
2023-02-27T16:01:11.729Z,8.94
2023-02-27T16:03:51.670Z,8.77
2023-02-27T16:06:29.399Z,8.64
2023-02-27T16:09:20.903Z,8.53
2023-02-27T16:11:48.364Z,8.47
2023-02-27T16:14:39.662Z,8.34
2023-02-27T16:17:25.677Z,8.32
2023-02-27T16:19:55.067Z,8.30
2023-02-27T16:22:22.829Z,8.18
2023-02-27T16:24:51.171Z,8.27
2023-02-27T16:27:27.659Z,8.22
2023-02-27T16:30:01.673Z,8.10
2023-02-27T16:32:37.550Z,8.04
2023-02-27T16:35:07.059Z,7.95
2023-02-27T16:37:42.288Z,7.75
2023-02-27T16:40:18.910Z,7.84
2023-02-27T16:42:47.160Z,7.92
2023-02-27T16:45:17.573Z,7.98
2023-02-27T16:47:48.266Z,7.83
2023-02-27T16:50:23.245Z,7.81
2023-02-27T16:52:50.556Z,7.75
2023-02-27T16:55:18.366Z,7.92
2023-02-27T16:57:45.755Z,7.98
2023-02-27T17:00:15.129Z,7.88
2023-02-27T17:02:43.318Z,7.88
2023-02-27T17:05:11.324Z,7.91
2023-02-27T17:07:38.837Z,7.72
2023-02-27T17:10:06.714Z,7.61
2023-02-27T17:12:34.283Z,7.58
2023-02-27T17:15:01.587Z,7.84
2023-02-27T17:17:29.319Z,7.93
2023-02-27T17:19:57.273Z,7.94
2023-02-27T17:22:24.575Z,7.63
2023-02-27T17:24:52.355Z,7.54
2023-02-27T17:27:19.611Z,7.46
2023-02-27T17:29:46.896Z,7.69
2023-02-27T17:32:14.786Z,7.76
2023-02-27T17:34:42.058Z,7.91
2023-02-27T17:37:09.449Z,8.06
2023-02-27T17:39:38.315Z,7.94
2023-02-27T17:42:05.746Z,7.81
2023-02-27T17:44:33.043Z,7.69
2023-02-27T17:47:02.905Z,7.73
2023-02-27T17:49:30.284Z,7.79
2023-02-27T17:52:00.674Z,8.06
2023-02-27T17:54:28.477Z,8.18
2023-02-27T17:56:55.875Z,7.90
2023-02-27T17:59:23.208Z,7.95
2023-02-27T18:01:51.107Z,8.00
2023-02-27T18:04:18.994Z,7.79
2023-02-27T18:06:46.284Z,7.80
2023-02-27T18:09:13.616Z,7.95
2023-02-27T18:11:41.588Z,7.79
2023-02-27T18:14:09.443Z,7.88
2023-02-27T18:16:37.039Z,7.76
2023-02-27T18:19:06.260Z,7.85
2023-02-27T18:21:34.360Z,7.90
2023-02-27T18:24:02.634Z,7.82
2023-02-27T18:26:33.072Z,7.88
2023-02-27T18:29:10.795Z,7.88
2023-02-27T18:31:42.963Z,7.67
2023-02-27T18:34:11.155Z,7.58
2023-02-27T18:36:39.208Z,7.47
2023-02-27T18:39:06.983Z,7.60
2023-02-27T18:41:34.717Z,7.50
2023-02-27T18:44:02.672Z,7.35
2023-02-27T18:46:30.373Z,7.35
2023-02-27T18:48:58.082Z,7.43
2023-02-27T18:51:26.375Z,7.33
2023-02-27T18:53:54.360Z,7.38
2023-02-27T18:56:24.168Z,7.43
2023-02-27T18:58:52.814Z,7.16
2023-02-27T19:01:23.707Z,7.21
2023-02-27T19:03:51.380Z,7.14
2023-02-27T19:06:19.278Z,7.19
2023-02-27T19:08:46.614Z,7.27
2023-02-27T19:11:36.060Z,7.05
2023-02-27T19:14:06.385Z,7.21
2023-02-27T19:16:35.107Z,7.01
2023-02-27T19:19:05.169Z,6.90
2023-02-27T19:21:34.113Z,6.80
2023-02-27T19:24:02.036Z,6.92
2023-02-27T19:26:29.820Z,7.17
2023-02-27T19:28:57.707Z,7.12
2023-02-27T19:31:25.293Z,6.91
2023-02-27T19:33:53.104Z,6.65
2023-02-27T19:36:22.436Z,6.72
2023-02-27T19:38:50.751Z,6.77
2023-02-27T19:41:19.143Z,6.70
2023-02-27T19:43:47.723Z,6.96
2023-02-27T19:46:18.061Z,6.35
2023-02-27T19:48:45.655Z,6.36
2023-02-27T19:51:15.160Z,6.51
2023-02-27T19:53:45.635Z,6.40
2023-02-27T19:56:17.570Z,6.44
2023-02-27T19:58:45.412Z,6.49
2023-02-27T20:01:13.139Z,6.47
2023-02-27T20:03:43.830Z,6.35
2023-02-27T20:06:23.432Z,6.39
2023-02-27T20:08:53.057Z,6.55
2023-02-27T20:11:21.832Z,6.67
2023-02-27T20:13:51.396Z,6.66
2023-02-27T20:16:22.424Z,6.72
2023-02-27T20:18:50.384Z,6.61
2023-02-27T20:21:24.000Z,6.69
2023-02-27T20:23:53.125Z,6.94
2023-02-27T20:26:28.611Z,6.92
2023-02-27T20:28:59.891Z,6.69
2023-02-27T20:31:29.603Z,6.21
2023-02-27T20:33:58.305Z,6.36
2023-02-27T20:36:25.790Z,6.21
2023-02-27T20:38:54.052Z,6.13
2023-02-27T20:41:23.351Z,6.43
2023-02-27T20:43:50.813Z,6.51
2023-02-27T20:46:24.980Z,6.36
2023-02-27T20:49:00.489Z,6.35
2023-02-27T20:51:31.632Z,6.43
2023-02-27T20:54:00.276Z,6.21
2023-02-27T20:56:31.082Z,6.30
2023-02-27T20:58:59.858Z,6.49
2023-02-27T21:01:27.721Z,6.30
2023-02-27T21:03:57.117Z,6.35
2023-02-27T21:06:26.432Z,6.47
2023-02-27T21:08:56.183Z,6.34
2023-02-27T21:11:30.550Z,6.34
2023-02-27T21:14:03.395Z,6.46
2023-02-27T21:16:31.079Z,6.50
2023-02-27T21:18:59.396Z,6.48
2023-02-27T21:21:32.446Z,6.47
2023-02-27T21:24:01.679Z,5.98
2023-02-27T21:26:35.518Z,6.07
2023-02-27T21:29:09.835Z,6.22
2023-02-27T21:31:38.768Z,6.32
2023-02-27T21:34:09.833Z,6.29
2023-02-27T21:36:42.917Z,6.48
2023-02-27T21:39:24.851Z,6.29
2023-02-27T21:41:53.225Z,6.35
2023-02-27T21:44:26.756Z,6.39
2023-02-27T21:46:54.729Z,6.49
2023-02-27T21:49:28.214Z,6.43
2023-02-27T21:51:57.280Z,6.54
2023-02-27T21:54:25.007Z,6.48
2023-02-27T21:56:52.478Z,6.48
2023-02-27T21:59:20.312Z,6.67
2023-02-27T22:01:48.649Z,6.62
2023-02-27T22:04:18.402Z,6.74
2023-02-27T22:06:46.044Z,6.68
2023-02-27T22:09:13.504Z,7.01
2023-02-27T22:11:41.793Z,6.96
2023-02-27T22:14:10.628Z,6.97
2023-02-27T22:16:38.545Z,6.91
2023-02-27T22:19:12.546Z,6.64
2023-02-27T22:21:40.830Z,6.69
2023-02-27T22:24:08.949Z,6.73
2023-02-27T22:26:36.661Z,6.67
2023-02-27T22:29:06.252Z,6.74
2023-02-27T22:31:36.678Z,6.79
2023-02-27T22:34:10.253Z,6.54
2023-02-27T22:36:38.456Z,6.87
2023-02-27T22:39:06.601Z,6.87
2023-02-27T22:41:39.816Z,6.74
2023-02-27T22:44:08.938Z,6.73
2023-02-27T22:46:41.961Z,6.67
2023-02-27T22:49:21.518Z,6.71
2023-02-27T22:51:50.977Z,6.74
2023-02-27T22:54:21.353Z,6.74
2023-02-27T22:56:53.239Z,6.64
2023-02-27T22:59:22.005Z,6.59
2023-02-27T23:01:50.654Z,6.56
2023-02-27T23:04:19.439Z,6.56
2023-02-27T23:06:47.265Z,6.47
2023-02-27T23:09:18.350Z,6.28
2023-02-27T23:11:46.310Z,6.10
2023-02-27T23:14:15.272Z,6.06
2023-02-27T23:16:46.783Z,6.05
2023-02-27T23:19:16.866Z,6.24
2023-02-27T23:21:45.083Z,6.32
2023-02-27T23:24:17.787Z,6.25
2023-02-27T23:26:48.150Z,6.41
2023-02-27T23:29:15.470Z,6.39
2023-02-27T23:31:43.204Z,6.49
2023-02-27T23:34:10.902Z,6.51
2023-02-27T23:36:39.164Z,6.49
2023-02-27T23:39:07.590Z,6.61
2023-02-27T23:41:35.860Z,6.74
2023-02-27T23:44:03.929Z,6.70
2023-02-27T23:46:31.798Z,6.96
2023-02-27T23:49:02.100Z,6.81
2023-02-27T23:51:30.569Z,6.61
2023-02-27T23:53:59.896Z,6.48
2023-02-27T23:56:30.024Z,6.68
2023-02-27T23:59:02.465Z,6.73
